createdAt,value
2018-06-27T00:00:03.275Z,61.38
2018-06-27T00:01:03.292Z,61.54
2018-06-27T00:02:03.244Z,60.68
2018-06-27T00:03:03.177Z,61.16
2018-06-27T00:04:03.141Z,61.54
2018-06-27T00:05:03.116Z,61.44
2018-06-27T00:06:03.081Z,61.64
2018-06-27T00:07:03.050Z,62.02
2018-06-27T00:08:03.254Z,62.28
2018-06-27T00:09:03.188Z,62.02
2018-06-27T00:10:02.969Z,62.28
2018-06-27T00:11:02.943Z,62.31
2018-06-27T00:12:02.908Z,62.18
2018-06-27T00:13:02.867Z,62.28
2018-06-27T00:14:03.021Z,63.15
2018-06-27T00:15:02.806Z,63.92
2018-06-27T00:16:02.791Z,63.63
2018-06-27T00:17:02.740Z,63.92
2018-06-27T00:18:02.715Z,64.59
2018-06-27T00:19:02.688Z,64.69
2018-06-27T00:20:02.657Z,64.37
2018-06-27T00:21:02.670Z,64.98
2018-06-27T00:22:02.642Z,65.37
2018-06-27T00:23:02.560Z,65.91
2018-06-27T00:25:02.499Z,66.01
2018-06-27T00:26:02.480Z,66.30
2018-06-27T00:27:02.448Z,65.72
2018-06-27T00:28:02.424Z,65.43
2018-06-27T00:29:02.375Z,65.24
2018-06-27T00:30:02.495Z,64.66
2018-06-27T00:31:02.315Z,65.24
2018-06-27T00:32:02.280Z,63.98
2018-06-27T00:33:02.252Z,63.79
2018-06-27T00:34:02.219Z,63.89
2018-06-27T00:35:02.207Z,63.79
2018-06-27T00:36:02.163Z,63.98
2018-06-27T00:37:02.155Z,64.37
2018-06-27T00:38:02.096Z,64.56
2018-06-27T00:39:02.276Z,64.56
2018-06-27T00:40:02.047Z,64.56
2018-06-27T00:41:02.123Z,64.56
2018-06-27T00:42:01.983Z,64.56
2018-06-27T00:43:01.949Z,64.56
2018-06-27T00:44:01.918Z,64.18
2018-06-27T00:45:01.886Z,64.95
2018-06-27T00:46:01.857Z,64.76
2018-06-27T00:47:02.018Z,64.47
2018-06-27T00:48:01.794Z,64.76
2018-06-27T00:49:01.764Z,64.66
2018-06-27T00:50:01.772Z,64.37
2018-06-27T00:51:01.687Z,64.37
2018-06-27T00:52:01.671Z,64.56
2018-06-27T00:53:01.638Z,64.76
2018-06-27T00:54:01.597Z,65.43
2018-06-27T00:55:01.574Z,65.43
2018-06-27T00:56:01.567Z,65.43
2018-06-27T00:57:01.519Z,65.53
2018-06-27T00:58:01.482Z,65.50
2018-06-27T00:59:01.443Z,65.81
2018-06-27T01:00:01.415Z,66.17
2018-06-27T01:01:01.382Z,66.17
2018-06-27T01:02:01.373Z,66.94
2018-06-27T01:03:01.320Z,67.42
2018-06-27T01:04:01.288Z,67.42
2018-06-27T01:05:01.263Z,67.13
2018-06-27T01:06:01.228Z,67.03
2018-06-27T01:07:01.220Z,67.03
2018-06-27T01:08:01.179Z,67.33
2018-06-27T01:09:01.144Z,67.23
2018-06-27T01:10:01.266Z,67.61
2018-06-27T01:11:01.073Z,67.13
2018-06-27T01:12:01.042Z,67.23
2018-06-27T01:13:01.025Z,67.13
2018-06-27T01:14:00.980Z,67.61
2018-06-27T01:15:00.956Z,67.81
2018-06-27T01:16:00.907Z,67.81
2018-06-27T01:17:00.883Z,67.61
2018-06-27T01:18:00.862Z,67.42
2018-06-27T01:19:00.821Z,67.61
2018-06-27T01:20:00.856Z,68.00
2018-06-27T01:21:00.762Z,68.38
2018-06-27T01:22:00.729Z,67.90
2018-06-27T01:23:00.705Z,68.00
2018-06-27T01:24:00.662Z,67.81
2018-06-27T01:25:00.650Z,68.29
2018-06-27T01:26:00.609Z,68.38
2018-06-27T01:27:00.583Z,68.44
2018-06-27T01:28:00.550Z,68.38
2018-06-27T01:29:00.522Z,67.71
2018-06-27T01:30:00.632Z,67.81
2018-06-27T01:31:00.447Z,67.42
2018-06-27T01:32:00.434Z,67.13
2018-06-27T01:33:00.405Z,67.13
2018-06-27T01:34:00.353Z,67.39
2018-06-27T01:35:00.330Z,67.61
2018-06-27T01:36:00.302Z,67.71
2018-06-27T01:37:00.253Z,67.23
2018-06-27T01:38:00.228Z,67.33
2018-06-27T01:39:00.199Z,67.23
2018-06-27T01:40:00.179Z,67.13
2018-06-27T01:41:00.137Z,67.10
2018-06-27T01:42:00.106Z,67.03
2018-06-27T01:43:00.075Z,67.03
2018-06-27T01:44:00.052Z,67.29
2018-06-27T01:45:00.019Z,67.03
2018-06-27T01:45:59.973Z,67.29
2018-06-27T01:46:59.942Z,67.13
2018-06-27T01:47:59.918Z,67.10
2018-06-27T01:48:59.884Z,67.23
2018-06-27T01:49:59.852Z,67.33
2018-06-27T01:50:59.832Z,67.19
2018-06-27T01:51:59.786Z,67.10
2018-06-27T01:52:59.770Z,67.77
2018-06-27T01:53:59.723Z,66.81
2018-06-27T01:54:59.693Z,67.00
2018-06-27T01:55:59.667Z,67.00
2018-06-27T01:56:59.629Z,67.39
2018-06-27T01:57:59.609Z,67.29
2018-06-27T01:58:59.579Z,67.10
2018-06-27T01:59:59.551Z,67.10
2018-06-27T02:00:59.505Z,67.10
2018-06-27T02:01:59.832Z,67.10
2018-06-27T02:02:59.438Z,67.10
2018-06-27T02:03:59.412Z,67.10
2018-06-27T02:04:59.379Z,66.91
2018-06-27T02:05:59.349Z,66.91
2018-06-27T02:06:59.323Z,67.19
2018-06-27T02:07:59.338Z,66.91
2018-06-27T02:08:59.249Z,66.52
2018-06-27T02:09:59.236Z,66.91
2018-06-27T02:10:59.273Z,66.71
2018-06-27T02:11:59.173Z,67.19
2018-06-27T02:12:59.119Z,67.58
2018-06-27T02:13:59.134Z,67.26
2018-06-27T02:14:59.067Z,67.19
2018-06-27T02:15:59.042Z,67.10
2018-06-27T02:16:58.997Z,67.00
2018-06-27T02:17:58.975Z,66.97
2018-06-27T02:18:59.144Z,67.26
2018-06-27T02:19:58.902Z,67.07
2018-06-27T02:20:58.877Z,67.29
2018-06-27T02:21:58.848Z,67.74
2018-06-27T02:22:58.812Z,67.16
2018-06-27T02:23:58.920Z,67.07
2018-06-27T02:24:58.748Z,67.26
2018-06-27T02:25:58.729Z,67.65
2018-06-27T02:26:58.688Z,67.74
2018-06-27T02:27:58.649Z,68.60
2018-06-27T02:28:58.627Z,68.29
2018-06-27T02:29:58.598Z,68.86
2018-06-27T02:30:58.562Z,69.06
2018-06-27T02:31:58.523Z,68.86
2018-06-27T02:32:58.714Z,69.73
2018-06-27T02:33:58.463Z,69.69
2018-06-27T02:34:58.578Z,69.98
2018-06-27T02:35:58.398Z,69.79
2018-06-27T02:36:58.364Z,69.79
2018-06-27T02:37:58.344Z,70.46
2018-06-27T02:38:58.302Z,70.17
2018-06-27T02:39:58.289Z,70.27
2018-06-27T02:40:58.242Z,70.46
2018-06-27T02:41:58.214Z,70.56
2018-06-27T02:42:58.172Z,70.27
2018-06-27T02:43:58.150Z,70.07
2018-06-27T02:44:58.124Z,69.69
2018-06-27T02:45:58.078Z,69.69
2018-06-27T02:46:58.051Z,69.89
2018-06-27T02:47:58.017Z,69.89
2018-06-27T02:48:57.983Z,69.53
2018-06-27T02:49:57.950Z,69.06
2018-06-27T02:50:57.930Z,68.86
2018-06-27T02:51:57.882Z,68.86
2018-06-27T02:52:57.871Z,68.86
2018-06-27T02:53:57.841Z,69.24
2018-06-27T02:54:57.785Z,68.76
2018-06-27T02:55:57.966Z,68.76
2018-06-27T02:56:57.740Z,68.48
2018-06-27T02:57:57.706Z,68.29
2018-06-27T02:58:57.734Z,68.19
2018-06-27T02:59:57.640Z,67.90
2018-06-27T03:00:57.597Z,67.42
2018-06-27T03:01:57.566Z,67.61
2018-06-27T03:02:57.621Z,67.71
2018-06-27T03:03:57.498Z,67.71
2018-06-27T03:04:57.468Z,67.80
2018-06-27T03:05:57.446Z,67.51
2018-06-27T03:06:57.460Z,67.51
2018-06-27T03:07:57.375Z,67.32
2018-06-27T03:08:57.353Z,67.71
2018-06-27T03:09:57.320Z,67.90
2018-06-27T03:10:57.278Z,67.42
2018-06-27T03:11:57.251Z,67.03
2018-06-27T03:12:57.219Z,66.36
2018-06-27T03:13:57.183Z,66.84
2018-06-27T03:14:57.150Z,67.22
2018-06-27T03:15:57.127Z,67.13
2018-06-27T03:16:57.086Z,67.13
2018-06-27T03:17:57.053Z,66.94
2018-06-27T03:18:57.088Z,67.03
2018-06-27T03:19:56.995Z,67.19
2018-06-27T03:20:56.961Z,67.10
2018-06-27T03:21:56.924Z,67.10
2018-06-27T03:22:56.900Z,67.19
2018-06-27T03:23:56.866Z,67.19
2018-06-27T03:24:56.847Z,67.00
2018-06-27T03:25:56.799Z,67.77
2018-06-27T03:26:57.114Z,67.86
2018-06-27T03:27:56.735Z,67.48
2018-06-27T03:28:56.703Z,68.06
2018-06-27T03:29:56.675Z,68.44
2018-06-27T03:30:56.645Z,68.44
2018-06-27T03:31:56.637Z,68.44
2018-06-27T03:32:56.575Z,68.63
2018-06-27T03:33:56.550Z,68.38
2018-06-27T03:34:56.510Z,68.48
2018-06-27T03:35:56.475Z,68.35
2018-06-27T03:36:56.445Z,68.35
2018-06-27T03:37:56.427Z,68.15
2018-06-27T03:38:56.386Z,68.63
2018-06-27T03:39:56.349Z,68.35
2018-06-27T03:40:56.313Z,68.73
2018-06-27T03:41:56.280Z,68.63
2018-06-27T03:42:56.260Z,68.63
2018-06-27T03:43:56.219Z,68.63
2018-06-27T03:44:56.188Z,68.92
2018-06-27T03:45:56.166Z,68.63
2018-06-27T03:46:56.138Z,68.44
2018-06-27T03:47:56.086Z,68.35
2018-06-27T03:48:56.062Z,68.06
2018-06-27T03:49:56.026Z,68.15
2018-06-27T03:50:55.995Z,68.35
2018-06-27T03:51:55.959Z,68.44
2018-06-27T03:52:55.936Z,68.63
2018-06-27T03:53:55.892Z,68.63
2018-06-27T03:54:55.868Z,68.83
2018-06-27T03:55:55.833Z,68.25
2018-06-27T03:56:55.800Z,68.25
2018-06-27T03:57:55.775Z,67.86
2018-06-27T03:58:55.781Z,67.68
2018-06-27T03:59:55.701Z,67.77
2018-06-27T04:00:55.674Z,68.15
2018-06-27T04:01:55.634Z,68.06
2018-06-27T04:02:55.601Z,68.06
2018-06-27T04:03:56.034Z,68.35
2018-06-27T04:04:55.574Z,68.35
2018-06-27T04:05:55.504Z,68.06
2018-06-27T04:06:55.484Z,68.35
2018-06-27T04:07:55.446Z,68.35
2018-06-27T04:08:55.413Z,68.44
2018-06-27T04:09:55.392Z,68.35
2018-06-27T04:10:55.355Z,68.25
2018-06-27T04:11:55.315Z,68.54
2018-06-27T04:12:55.312Z,68.83
2018-06-27T04:13:55.254Z,68.54
2018-06-27T04:14:55.214Z,68.73
2018-06-27T04:15:55.186Z,68.83
2018-06-27T04:16:55.149Z,68.83
2018-06-27T04:17:55.155Z,68.98
2018-06-27T04:18:55.088Z,68.92
2018-06-27T04:19:55.055Z,68.79
2018-06-27T04:20:55.021Z,68.89
2018-06-27T04:21:55.001Z,68.83
2018-06-27T04:22:54.960Z,69.66
2018-06-27T04:23:54.928Z,69.18
2018-06-27T04:24:55.099Z,69.85
2018-06-27T04:25:54.865Z,70.43
2018-06-27T04:26:54.826Z,70.04
2018-06-27T04:27:54.794Z,69.85
2018-06-27T04:28:54.762Z,69.46
2018-06-27T04:29:54.726Z,69.95
2018-06-27T04:30:54.694Z,69.56
2018-06-27T04:31:54.672Z,69.75
2018-06-27T04:32:54.636Z,70.04
2018-06-27T04:33:54.608Z,69.37
2018-06-27T04:34:54.572Z,69.95
2018-06-27T04:35:54.557Z,69.75
2018-06-27T04:36:54.505Z,69.66
2018-06-27T04:37:54.467Z,69.95
2018-06-27T04:38:54.438Z,69.66
2018-06-27T04:39:54.405Z,69.95
2018-06-27T04:41:54.336Z,69.66
2018-06-27T04:42:54.313Z,69.85
2018-06-27T04:43:54.271Z,69.85
2018-06-27T04:44:54.245Z,69.37
2018-06-27T04:45:54.210Z,69.56
2018-06-27T04:46:54.187Z,69.85
2018-06-27T04:47:54.141Z,69.66
2018-06-27T04:48:54.119Z,69.85
2018-06-27T04:49:54.093Z,69.27
2018-06-27T04:50:54.052Z,69.85
2018-06-27T04:51:54.016Z,69.85
2018-06-27T04:52:53.985Z,69.56
2018-06-27T04:53:53.945Z,69.75
2018-06-27T04:54:53.920Z,69.46
2018-06-27T04:55:53.885Z,69.85
2018-06-27T04:56:53.854Z,69.66
2018-06-27T04:57:53.828Z,69.37
2018-06-27T04:58:53.785Z,69.75
2018-06-27T04:59:53.782Z,69.37
2018-06-27T05:00:53.725Z,69.75
2018-06-27T05:01:53.684Z,70.33
2018-06-27T05:02:53.662Z,69.91
2018-06-27T05:03:53.631Z,70.39
2018-06-27T05:04:53.592Z,70.58
2018-06-27T05:05:53.558Z,70.49
2018-06-27T05:06:53.521Z,70.49
2018-06-27T05:07:53.498Z,70.49
2018-06-27T05:08:53.460Z,70.39
2018-06-27T05:09:53.424Z,70.49
2018-06-27T05:10:53.408Z,70.01
2018-06-27T05:11:53.364Z,70.33
2018-06-27T05:12:53.728Z,70.14
2018-06-27T05:13:53.303Z,70.29
2018-06-27T05:14:53.281Z,70.33
2018-06-27T05:15:53.235Z,70.23
2018-06-27T05:16:53.336Z,70.43
2018-06-27T05:17:53.173Z,70.20
2018-06-27T05:18:53.336Z,70.58
2018-06-27T05:19:53.118Z,70.58
2018-06-27T05:20:53.068Z,70.39
2018-06-27T05:21:53.037Z,70.97
2018-06-27T05:22:53.006Z,71.06
2018-06-27T05:23:52.965Z,71.19
2018-06-27T05:24:52.964Z,70.97
2018-06-27T05:25:52.904Z,71.25
2018-06-27T05:26:52.874Z,71.73
2018-06-27T05:27:52.856Z,71.55
2018-06-27T05:28:53.041Z,71.45
2018-06-27T05:29:52.783Z,71.45
2018-06-27T05:30:52.739Z,71.25
2018-06-27T05:31:52.708Z,71.16
2018-06-27T05:32:52.677Z,71.55
2018-06-27T05:33:52.678Z,71.55
2018-06-27T05:34:53.016Z,72.02
2018-06-27T05:35:52.579Z,72.02
2018-06-27T05:36:52.541Z,71.73
2018-06-27T05:37:52.506Z,71.16
2018-06-27T05:38:52.475Z,71.73
2018-06-27T05:39:52.455Z,71.35
2018-06-27T05:40:52.463Z,71.35
2018-06-27T05:41:52.374Z,71.93
2018-06-27T05:42:52.346Z,72.02
2018-06-27T05:43:52.311Z,71.73
2018-06-27T05:44:52.340Z,71.19
2018-06-27T05:45:52.255Z,71.35
2018-06-27T05:46:52.210Z,71.58
2018-06-27T05:47:52.190Z,71.45
2018-06-27T05:48:52.151Z,71.45
2018-06-27T05:49:52.147Z,71.35
2018-06-27T05:50:52.081Z,72.06
2018-06-27T05:51:52.055Z,71.87
2018-06-27T05:52:52.035Z,71.93
2018-06-27T05:53:51.983Z,72.16
2018-06-27T05:54:51.957Z,72.34
2018-06-27T05:55:51.924Z,71.73
2018-06-27T05:56:52.150Z,71.87
2018-06-27T05:57:51.916Z,72.06
2018-06-27T05:58:51.829Z,72.06
2018-06-27T05:59:51.787Z,72.34
2018-06-27T06:00:51.758Z,72.16
2018-06-27T06:01:51.729Z,72.44
2018-06-27T06:02:51.693Z,72.25
2018-06-27T06:03:51.657Z,72.22
2018-06-27T06:04:51.621Z,72.16
2018-06-27T06:05:51.594Z,72.02
2018-06-27T06:06:51.566Z,72.25
2018-06-27T06:07:51.928Z,72.54
2018-06-27T06:08:51.494Z,73.08
2018-06-27T06:09:51.462Z,72.79
2018-06-27T06:10:51.430Z,72.44
2018-06-27T06:11:51.399Z,72.44
2018-06-27T06:12:51.381Z,72.60
2018-06-27T06:13:51.529Z,73.02
2018-06-27T06:14:51.295Z,73.60
2018-06-27T06:15:51.266Z,74.08
2018-06-27T06:16:51.231Z,73.69
2018-06-27T06:17:51.194Z,73.69
2018-06-27T06:18:51.218Z,73.88
2018-06-27T06:19:51.180Z,73.60
2018-06-27T06:20:51.103Z,74.08
2018-06-27T06:21:51.064Z,73.98
2018-06-27T06:22:51.049Z,74.27
2018-06-27T06:23:50.999Z,74.46
2018-06-27T06:24:50.982Z,73.88
2018-06-27T06:25:50.988Z,74.08
2018-06-27T06:26:50.903Z,73.88
2018-06-27T06:27:50.873Z,73.94
2018-06-27T06:28:50.944Z,73.94
2018-06-27T06:29:50.811Z,74.08
2018-06-27T06:30:50.770Z,73.79
2018-06-27T06:31:50.745Z,73.79
2018-06-27T06:32:50.706Z,73.98
2018-06-27T06:33:50.670Z,74.43
2018-06-27T06:34:50.706Z,74.43
2018-06-27T06:35:50.619Z,74.65
2018-06-27T06:36:50.570Z,75.04
2018-06-27T06:37:50.541Z,74.55
2018-06-27T06:38:50.509Z,75.20
2018-06-27T06:39:50.678Z,75.13
2018-06-27T06:40:50.502Z,75.13
2018-06-27T06:41:50.408Z,75.23
2018-06-27T06:42:50.370Z,74.94
2018-06-27T06:43:50.344Z,75.23
2018-06-27T06:44:50.308Z,75.32
2018-06-27T06:45:50.370Z,75.90
2018-06-27T06:46:50.248Z,75.42
2018-06-27T06:47:50.214Z,75.71
2018-06-27T06:48:50.184Z,76.15
2018-06-27T06:49:50.142Z,76.29
2018-06-27T06:50:50.376Z,75.87
2018-06-27T06:51:50.077Z,75.62
2018-06-27T06:52:50.051Z,75.29
2018-06-27T06:53:50.014Z,75.13
2018-06-27T06:54:49.989Z,74.94
2018-06-27T06:55:49.951Z,74.90
2018-06-27T06:57:49.886Z,75.23
2018-06-27T06:58:49.915Z,75.38
2018-06-27T06:59:49.820Z,75.00
2018-06-27T07:00:49.781Z,75.38
2018-06-27T07:01:49.746Z,75.29
2018-06-27T07:02:49.721Z,75.10
2018-06-27T07:03:49.697Z,75.38
2018-06-27T07:04:49.732Z,75.10
2018-06-27T07:05:49.620Z,75.20
2018-06-27T07:06:49.587Z,75.48
2018-06-27T07:07:49.558Z,75.48
2018-06-27T07:08:49.538Z,75.96
2018-06-27T07:09:49.490Z,75.48
2018-06-27T07:10:49.513Z,75.20
2018-06-27T07:11:49.421Z,74.94
2018-06-27T07:12:49.387Z,75.00
2018-06-27T07:13:49.364Z,74.71
2018-06-27T07:14:49.333Z,74.81
2018-06-27T07:15:49.297Z,75.10
2018-06-27T07:16:49.457Z,75.10
2018-06-27T07:17:49.246Z,74.71
2018-06-27T07:18:49.203Z,75.20
2018-06-27T07:19:49.166Z,74.90
2018-06-27T07:20:49.134Z,74.62
2018-06-27T07:22:49.059Z,75.20
2018-06-27T07:23:49.023Z,75.20
2018-06-27T07:24:49.000Z,75.20
2018-06-27T07:25:48.967Z,75.00
2018-06-27T07:26:48.925Z,75.29
2018-06-27T07:27:48.944Z,75.57
2018-06-27T07:28:48.878Z,76.34
2018-06-27T07:29:48.878Z,76.73
2018-06-27T07:30:48.799Z,76.73
2018-06-27T07:31:48.763Z,76.34
2018-06-27T07:32:48.882Z,76.54
2018-06-27T07:33:48.710Z,76.34
2018-06-27T07:34:48.681Z,76.64
2018-06-27T07:35:48.720Z,76.82
2018-06-27T07:36:48.596Z,77.01
2018-06-27T07:37:48.565Z,77.11
2018-06-27T07:38:48.748Z,76.92
2018-06-27T07:39:48.510Z,77.01
2018-06-27T07:40:48.481Z,77.21
2018-06-27T07:41:48.433Z,77.01
2018-06-27T07:42:48.399Z,77.21
2018-06-27T07:43:48.387Z,77.40
2018-06-27T07:44:48.443Z,77.98
2018-06-27T07:45:48.303Z,77.50
2018-06-27T07:46:48.270Z,77.50
2018-06-27T07:47:48.249Z,77.31
2018-06-27T07:48:48.204Z,77.50
2018-06-27T07:49:48.186Z,77.59
2018-06-27T07:50:48.343Z,77.88
2018-06-27T07:51:48.105Z,77.88
2018-06-27T07:52:48.075Z,77.98
2018-06-27T07:53:48.039Z,77.31
2018-06-27T07:54:48.009Z,77.50
2018-06-27T07:55:47.981Z,77.88
2018-06-27T07:56:47.946Z,77.78
2018-06-27T07:57:47.905Z,77.98
2018-06-27T07:58:47.872Z,77.59
2018-06-27T07:59:47.840Z,78.45
2018-06-27T08:00:47.820Z,78.45
2018-06-27T08:01:47.787Z,78.27
2018-06-27T08:02:47.744Z,78.55
2018-06-27T08:03:47.744Z,78.36
2018-06-27T08:04:47.677Z,78.17
2018-06-27T08:05:47.726Z,78.36
2018-06-27T08:06:47.924Z,78.36
2018-06-27T08:07:47.578Z,78.45
2018-06-27T08:08:47.556Z,78.36
2018-06-27T08:09:47.523Z,78.55
2018-06-27T08:10:47.478Z,78.65
2018-06-27T08:11:47.449Z,78.65
2018-06-27T08:12:47.419Z,78.94
2018-06-27T08:13:47.378Z,78.84
2018-06-27T08:14:47.354Z,78.94
2018-06-27T08:15:47.313Z,78.84
2018-06-27T08:16:47.285Z,79.22
2018-06-27T08:17:47.262Z,79.22
2018-06-27T08:18:47.225Z,79.32
2018-06-27T08:19:47.193Z,79.32
2018-06-27T08:20:47.146Z,79.03
2018-06-27T08:21:47.124Z,78.94
2018-06-27T08:22:47.082Z,78.94
2018-06-27T08:23:47.055Z,78.94
2018-06-27T08:24:47.018Z,79.32
2018-06-27T08:25:46.990Z,78.94
2018-06-27T08:26:46.952Z,79.13
2018-06-27T08:27:46.918Z,78.94
2018-06-27T08:28:46.888Z,79.13
2018-06-27T08:29:46.862Z,79.03
2018-06-27T08:30:46.821Z,78.84
2018-06-27T08:31:46.795Z,78.94
2018-06-27T08:32:46.772Z,79.03
2018-06-27T08:33:47.037Z,79.52
2018-06-27T08:34:46.690Z,79.13
2018-06-27T08:35:46.660Z,79.13
2018-06-27T08:36:46.620Z,79.42
2018-06-27T08:37:46.590Z,79.32
2018-06-27T08:38:46.554Z,79.32
2018-06-27T08:39:46.739Z,79.42
2018-06-27T08:40:46.487Z,79.13
2018-06-27T08:41:46.459Z,79.03
2018-06-27T08:42:46.431Z,79.52
2018-06-27T08:43:46.416Z,79.03
2018-06-27T08:44:46.364Z,79.42
2018-06-27T08:46:46.290Z,79.22
2018-06-27T08:47:46.281Z,80.38
2018-06-27T08:48:46.242Z,80.19
2018-06-27T08:49:46.202Z,80.09
2018-06-27T08:50:46.155Z,79.90
2018-06-27T08:51:46.133Z,80.28
2018-06-27T08:52:46.106Z,80.38
2018-06-27T08:53:46.086Z,80.28
2018-06-27T08:54:46.034Z,80.09
2018-06-27T08:55:46.004Z,80.66
2018-06-27T08:56:45.959Z,80.66
2018-06-27T08:57:45.931Z,80.47
2018-06-27T08:58:45.919Z,80.28
2018-06-27T08:59:45.865Z,79.52
2018-06-27T09:00:45.834Z,79.13
2018-06-27T09:01:46.010Z,79.22
2018-06-27T09:02:45.784Z,78.84
2018-06-27T09:03:45.726Z,77.98
2018-06-27T09:04:45.698Z,77.98
2018-06-27T09:05:45.662Z,77.40
2018-06-27T09:06:45.633Z,77.40
2018-06-27T09:07:45.648Z,76.92
2018-06-27T09:08:45.573Z,76.64
2018-06-27T09:09:45.538Z,76.64
2018-06-27T09:10:45.508Z,76.73
2018-06-27T09:11:45.487Z,76.73
2018-06-27T09:12:45.433Z,76.82
2018-06-27T09:13:45.408Z,76.82
2018-06-27T09:14:45.377Z,77.78
2018-06-27T09:15:45.339Z,78.45
2018-06-27T09:16:45.311Z,78.45
2018-06-27T09:17:45.280Z,78.55
2018-06-27T09:18:45.435Z,79.03
2018-06-27T09:19:45.201Z,78.84
2018-06-27T09:20:45.169Z,79.03
2018-06-27T09:21:45.141Z,79.61
2018-06-27T09:22:45.116Z,79.32
2018-06-27T09:23:45.077Z,79.22
2018-06-27T09:24:45.047Z,79.32
2018-06-27T09:25:45.008Z,78.75
2018-06-27T09:26:44.970Z,79.42
2018-06-27T09:27:44.940Z,80.28
2018-06-27T09:28:44.908Z,79.90
2018-06-27T09:29:44.935Z,80.28
2018-06-27T09:30:44.839Z,80.09
2018-06-27T09:31:44.808Z,80.76
2018-06-27T09:32:44.780Z,80.86
2018-06-27T09:33:44.946Z,80.47
2018-06-27T09:34:44.711Z,79.32
2018-06-27T09:35:44.682Z,78.84
2018-06-27T09:36:44.641Z,78.45
2018-06-27T09:37:44.607Z,77.98
2018-06-27T09:38:44.585Z,77.75
2018-06-27T09:39:46.444Z,77.01
2018-06-27T09:40:44.508Z,77.36
2018-06-27T09:41:44.477Z,77.40
2018-06-27T09:42:44.444Z,77.31
2018-06-27T09:43:44.410Z,77.08
2018-06-27T09:44:44.387Z,77.50
2018-06-27T09:45:44.396Z,77.36
2018-06-27T09:46:44.323Z,77.08
2018-06-27T09:47:44.375Z,77.56
2018-06-27T09:48:44.241Z,78.23
2018-06-27T09:49:44.215Z,78.90
2018-06-27T09:50:44.325Z,79.38
2018-06-27T09:51:44.148Z,79.38
2018-06-27T09:52:44.113Z,79.38
2018-06-27T09:53:44.090Z,79.28
2018-06-27T09:54:44.049Z,80.15
2018-06-27T09:55:44.061Z,80.24
2018-06-27T09:56:43.999Z,80.24
2018-06-27T09:57:43.944Z,79.38
2018-06-27T09:58:43.908Z,79.38
2018-06-27T09:59:43.875Z,79.67
2018-06-27T10:00:43.850Z,79.38
2018-06-27T10:01:43.814Z,80.05
2018-06-27T10:02:43.783Z,80.82
2018-06-27T10:03:43.747Z,81.01
2018-06-27T10:04:43.721Z,81.78
2018-06-27T10:05:43.697Z,82.07
2018-06-27T10:06:44.052Z,82.26
2018-06-27T10:07:43.634Z,82.16
2018-06-27T10:08:43.582Z,82.45
2018-06-27T10:09:43.558Z,83.03
2018-06-27T10:10:43.513Z,82.45
2018-06-27T10:11:43.487Z,81.78
2018-06-27T10:12:43.446Z,81.68
2018-06-27T10:13:43.419Z,82.20
2018-06-27T10:14:43.378Z,81.68
2018-06-27T10:15:43.362Z,81.63
2018-06-27T10:16:43.321Z,81.78
2018-06-27T10:17:43.281Z,81.82
2018-06-27T10:18:43.257Z,82.40
2018-06-27T10:19:43.214Z,82.20
2018-06-27T10:20:43.197Z,82.30
2018-06-27T10:21:43.148Z,82.49
2018-06-27T10:22:43.187Z,82.01
2018-06-27T10:23:43.082Z,81.82
2018-06-27T10:24:43.055Z,81.82
2018-06-27T10:25:43.025Z,81.76
2018-06-27T10:26:42.986Z,81.43
2018-06-27T10:27:42.953Z,81.67
2018-06-27T10:28:42.927Z,81.67
2018-06-27T10:29:42.887Z,81.57
2018-06-27T10:30:42.875Z,82.34
2018-06-27T10:31:42.826Z,81.96
2018-06-27T10:32:42.848Z,81.28
2018-06-27T10:33:42.762Z,81.48
2018-06-27T10:34:42.723Z,81.19
2018-06-27T10:35:42.743Z,81.28
2018-06-27T10:36:42.653Z,81.52
2018-06-27T10:37:42.627Z,80.84
2018-06-27T10:38:42.811Z,80.75
2018-06-27T10:39:42.637Z,81.61
2018-06-27T10:40:42.548Z,81.52
2018-06-27T10:41:42.503Z,80.55
2018-06-27T10:42:42.465Z,80.65
2018-06-27T10:43:42.436Z,80.94
2018-06-27T10:44:42.397Z,80.46
2018-06-27T10:45:42.379Z,80.46
2018-06-27T10:46:42.335Z,80.27
2018-06-27T10:47:42.302Z,79.53
2018-06-27T10:48:42.268Z,80.21
2018-06-27T10:49:42.239Z,79.98
2018-06-27T10:50:42.210Z,80.40
2018-06-27T10:51:42.168Z,80.30
2018-06-27T10:52:42.148Z,80.40
2018-06-27T10:53:42.108Z,80.11
2018-06-27T10:54:42.071Z,80.40
2018-06-27T10:55:42.135Z,79.82
2018-06-27T10:56:42.013Z,79.63
2018-06-27T10:57:41.979Z,79.73
2018-06-27T10:58:41.948Z,79.63
2018-06-27T10:59:41.931Z,79.73
2018-06-27T11:00:41.883Z,79.35
2018-06-27T11:01:41.860Z,79.53
2018-06-27T11:02:41.820Z,79.58
2018-06-27T11:03:41.788Z,79.67
2018-06-27T11:04:41.767Z,79.67
2018-06-27T11:05:41.723Z,79.48
2018-06-27T11:06:41.912Z,79.67
2018-06-27T11:07:41.655Z,79.86
2018-06-27T11:08:41.634Z,80.15
2018-06-27T11:09:41.593Z,79.58
2018-06-27T11:10:41.562Z,79.96
2018-06-27T11:11:41.535Z,79.86
2018-06-27T11:12:41.708Z,79.58
2018-06-27T11:13:41.468Z,79.48
2018-06-27T11:14:41.444Z,79.86
2018-06-27T11:15:41.407Z,79.61
2018-06-27T11:16:41.378Z,79.58
2018-06-27T11:17:41.344Z,79.71
2018-06-27T11:18:41.312Z,79.52
2018-06-27T11:19:41.280Z,79.13
2018-06-27T11:20:41.255Z,78.75
2018-06-27T11:21:41.221Z,77.78
2018-06-27T11:22:41.184Z,78.27
2018-06-27T11:23:41.406Z,78.17
2018-06-27T11:24:41.124Z,78.17
2018-06-27T11:25:41.093Z,77.69
2018-06-27T11:26:41.157Z,77.59
2018-06-27T11:27:41.036Z,77.88
2018-06-27T11:28:41.000Z,77.88
2018-06-27T11:29:40.969Z,77.69
2018-06-27T11:30:40.936Z,78.02
2018-06-27T11:31:40.908Z,77.92
2018-06-27T11:32:40.881Z,77.06
2018-06-27T11:33:41.192Z,77.25
2018-06-27T11:34:40.810Z,77.73
2018-06-27T11:35:40.793Z,77.44
2018-06-27T11:36:40.755Z,76.28
2018-06-27T11:37:40.719Z,76.76
2018-06-27T11:38:40.727Z,76.96
2018-06-27T11:39:40.956Z,76.67
2018-06-27T11:40:40.627Z,76.96
2018-06-27T11:41:40.597Z,76.38
2018-06-27T11:42:40.570Z,76.38
2018-06-27T11:43:40.537Z,76.61
2018-06-27T11:44:40.506Z,76.38
2018-06-27T11:45:40.673Z,76.13
2018-06-27T11:46:40.449Z,76.13
2018-06-27T11:47:40.410Z,76.42
2018-06-27T11:48:40.382Z,76.13
2018-06-27T11:49:40.355Z,76.13
2018-06-27T11:50:40.472Z,76.03
2018-06-27T11:51:40.292Z,76.03
2018-06-27T11:52:40.260Z,75.55
2018-06-27T11:53:40.242Z,75.65
2018-06-27T11:54:40.201Z,75.36
2018-06-27T11:55:40.168Z,74.97
2018-06-27T11:56:40.141Z,74.68
2018-06-27T11:57:40.107Z,74.97
2018-06-27T11:58:40.082Z,74.91
2018-06-27T11:59:40.052Z,74.72
2018-06-27T12:00:40.027Z,74.43
2018-06-27T12:01:40.002Z,74.52
2018-06-27T12:02:39.977Z,73.66
2018-06-27T12:03:39.966Z,72.89
2018-06-27T12:04:39.898Z,72.79
2018-06-27T12:05:39.872Z,72.89
2018-06-27T12:06:39.848Z,72.31
2018-06-27T12:07:39.837Z,71.73
2018-06-27T12:08:39.819Z,71.73
2018-06-27T12:09:39.772Z,71.34
2018-06-27T12:10:39.751Z,70.22
2018-06-27T12:11:39.867Z,69.61
2018-06-27T12:12:39.669Z,69.03
2018-06-27T12:13:39.641Z,69.16
2018-06-27T12:14:39.628Z,69.07
2018-06-27T12:15:39.597Z,68.97
2018-06-27T12:16:39.563Z,68.77
2018-06-27T12:17:39.678Z,68.29
2018-06-27T12:18:39.498Z,67.81
2018-06-27T12:19:39.480Z,68.59
2018-06-27T12:20:39.436Z,67.91
2018-06-27T12:21:39.409Z,67.91
2018-06-27T12:22:39.378Z,67.91
2018-06-27T12:23:39.338Z,68.01
2018-06-27T12:24:39.305Z,67.71
2018-06-27T12:25:39.276Z,67.43
2018-06-27T12:26:39.246Z,67.52
2018-06-27T12:27:39.223Z,68.01
2018-06-27T12:28:39.643Z,67.43
2018-06-27T12:29:39.190Z,67.33
2018-06-27T12:30:39.199Z,67.91
2018-06-27T12:31:39.118Z,67.43
2018-06-27T12:32:39.080Z,66.85
2018-06-27T12:33:39.064Z,66.85
2018-06-27T12:34:39.198Z,66.66
2018-06-27T12:35:38.981Z,66.17
2018-06-27T12:36:38.948Z,66.36
2018-06-27T12:37:38.923Z,65.43
2018-06-27T12:38:38.927Z,65.63
2018-06-27T12:39:39.058Z,65.63
2018-06-27T12:40:38.834Z,65.63
2018-06-27T12:41:38.809Z,65.43
2018-06-27T12:42:38.779Z,65.72
2018-06-27T12:43:38.743Z,65.82
2018-06-27T12:44:38.723Z,65.34
2018-06-27T12:45:39.130Z,65.91
2018-06-27T12:46:38.654Z,65.82
2018-06-27T12:47:38.648Z,65.63
2018-06-27T12:48:38.606Z,65.43
2018-06-27T12:49:38.562Z,65.34
2018-06-27T12:50:38.535Z,65.24
2018-06-27T12:51:38.735Z,65.05
2018-06-27T12:52:38.497Z,64.95
2018-06-27T12:53:38.445Z,65.05
2018-06-27T12:54:38.444Z,65.05
2018-06-27T12:55:38.395Z,65.34
2018-06-27T12:56:38.360Z,65.43